createdAt,value
2022-10-17T00:02:37.918Z,2.60
2022-10-17T00:05:25.084Z,2.10
2022-10-17T00:08:13.806Z,2.57
2022-10-17T00:11:04.131Z,2.10
2022-10-17T00:13:52.121Z,2.40
2022-10-17T00:16:39.048Z,2.23
2022-10-17T00:19:25.697Z,2.23
2022-10-17T00:22:12.172Z,2.27
2022-10-17T00:24:58.739Z,2.20
2022-10-17T00:27:46.767Z,2.10
2022-10-17T00:30:33.831Z,2.20
2022-10-17T00:33:20.445Z,2.10
2022-10-17T00:36:08.949Z,2.37
2022-10-17T00:38:57.624Z,1.90
2022-10-17T00:41:44.159Z,2.57
2022-10-17T00:45:01.343Z,1.97
2022-10-17T00:47:52.642Z,2.23
2022-10-17T00:50:41.698Z,2.10
2022-10-17T00:53:29.276Z,1.90
2022-10-17T00:56:17.372Z,2.17
2022-10-17T00:59:07.525Z,2.70
2022-10-17T01:02:03.063Z,2.00
2022-10-17T01:04:53.212Z,1.93
2022-10-17T01:07:42.340Z,2.00
2022-10-17T01:10:43.665Z,2.00
2022-10-17T01:13:35.359Z,1.90
2022-10-17T01:16:32.884Z,2.17
2022-10-17T01:19:40.379Z,2.00
2022-10-17T01:22:32.396Z,2.10
2022-10-17T01:25:28.613Z,2.13
2022-10-17T01:28:30.686Z,2.20
2022-10-17T01:31:22.642Z,2.13
2022-10-17T01:34:15.651Z,2.33
2022-10-17T01:37:05.454Z,2.33
2022-10-17T01:39:55.779Z,2.50
2022-10-17T01:42:49.363Z,2.10
2022-10-17T01:45:41.694Z,2.40
2022-10-17T01:48:36.100Z,2.23
2022-10-17T01:51:26.305Z,1.97
2022-10-17T01:54:16.619Z,2.10
2022-10-17T01:57:06.993Z,2.00
2022-10-17T01:59:56.508Z,2.20
2022-10-17T02:02:44.962Z,2.77
2022-10-17T02:05:37.575Z,2.10
2022-10-17T02:08:29.098Z,2.10
2022-10-17T02:11:18.607Z,2.10
2022-10-17T02:14:19.909Z,2.10
2022-10-17T02:17:15.112Z,2.03
2022-10-17T02:20:11.467Z,2.27
2022-10-17T02:23:04.552Z,2.30
2022-10-17T02:25:56.607Z,2.40
2022-10-17T02:28:48.515Z,2.10
2022-10-17T02:31:41.154Z,2.60
2022-10-17T02:34:31.877Z,2.13
2022-10-17T02:37:24.000Z,2.80
2022-10-17T02:40:15.348Z,2.40
2022-10-17T02:43:01.928Z,2.33
2022-10-17T02:45:49.627Z,2.37
2022-10-17T02:48:39.960Z,2.57
2022-10-17T02:51:34.221Z,2.80
2022-10-17T02:54:24.251Z,2.50
2022-10-17T02:57:18.025Z,2.53
2022-10-17T03:00:08.743Z,2.30
2022-10-17T03:02:56.019Z,2.30
2022-10-17T03:05:42.591Z,2.67
2022-10-17T03:08:29.121Z,2.37
2022-10-17T03:11:15.555Z,2.70
2022-10-17T03:14:03.431Z,2.47
2022-10-17T03:16:50.277Z,2.60
2022-10-17T03:19:36.777Z,2.60
2022-10-17T03:22:23.305Z,2.60
2022-10-17T03:25:10.056Z,2.53
2022-10-17T03:27:58.715Z,2.70
2022-10-17T03:30:46.512Z,2.87
2022-10-17T03:33:33.270Z,2.93
2022-10-17T03:36:20.627Z,3.23
2022-10-17T03:39:06.957Z,3.40
2022-10-17T03:41:53.604Z,2.80
2022-10-17T03:44:40.031Z,3.23
2022-10-17T03:47:29.293Z,3.13
2022-10-17T03:50:16.148Z,3.87
2022-10-17T03:53:03.080Z,3.00
2022-10-17T03:55:49.453Z,2.80
2022-10-17T03:58:35.942Z,2.60
2022-10-17T04:01:23.210Z,3.13
2022-10-17T04:04:11.263Z,2.60
2022-10-17T04:06:58.092Z,2.83
2022-10-17T04:09:44.450Z,3.07
2022-10-17T04:12:31.139Z,2.83
2022-10-17T04:15:18.328Z,2.67
2022-10-17T04:20:57.977Z,3.23
2022-10-17T04:23:44.813Z,2.90
2022-10-17T04:26:31.378Z,2.40
2022-10-17T04:29:17.837Z,2.47
2022-10-17T04:32:04.439Z,3.00
2022-10-17T04:34:51.276Z,3.33
2022-10-17T04:37:39.569Z,2.90
2022-10-17T04:40:26.333Z,2.87
2022-10-17T04:43:12.741Z,3.10
2022-10-17T04:46:00.052Z,3.33
2022-10-17T04:48:46.914Z,3.13
2022-10-17T04:51:33.409Z,3.37
2022-10-17T04:54:21.285Z,3.47
2022-10-17T04:57:08.072Z,2.60
2022-10-17T04:59:54.628Z,2.80
2022-10-17T05:02:41.049Z,3.10
2022-10-17T05:05:27.615Z,2.83
2022-10-17T05:08:14.331Z,3.17
2022-10-17T05:11:02.822Z,3.00
2022-10-17T05:13:52.587Z,3.07
2022-10-17T05:16:39.187Z,3.20
2022-10-17T05:19:25.604Z,3.17
2022-10-17T05:22:12.135Z,3.00
2022-10-17T05:24:58.708Z,2.90
2022-10-17T05:27:46.588Z,3.07
2022-10-17T05:30:35.302Z,3.20
2022-10-17T05:33:24.562Z,3.13
2022-10-17T05:36:11.589Z,3.07
2022-10-17T05:38:58.144Z,2.83
2022-10-17T05:41:44.936Z,3.30
2022-10-17T05:44:33.632Z,3.03
2022-10-17T05:47:20.188Z,2.80
2022-10-17T05:50:07.519Z,3.23
2022-10-17T05:52:55.079Z,3.33
2022-10-17T05:55:41.804Z,3.10
2022-10-17T06:01:37.055Z,2.73
2022-10-17T06:04:24.123Z,3.37
2022-10-17T06:07:10.859Z,2.67
2022-10-17T06:09:58.956Z,2.90
2022-10-17T06:12:46.212Z,2.60
2022-10-17T06:15:32.978Z,3.10
2022-10-17T06:18:20.909Z,3.00
2022-10-17T06:21:09.693Z,3.10
2022-10-17T06:23:56.332Z,3.10
2022-10-17T06:26:43.143Z,3.77
2022-10-17T06:29:29.531Z,2.60
2022-10-17T06:32:16.028Z,2.90
2022-10-17T06:35:04.256Z,2.57
2022-10-17T06:37:51.024Z,2.90
2022-10-17T06:40:37.533Z,2.90
2022-10-17T06:43:27.734Z,3.40
2022-10-17T06:46:16.198Z,2.83
2022-10-17T06:49:04.621Z,2.90
2022-10-17T06:51:52.580Z,2.40
2022-10-17T06:54:38.980Z,3.00
2022-10-17T06:57:25.734Z,2.80
2022-10-17T07:00:13.819Z,2.73
2022-10-17T07:03:00.094Z,3.00
2022-10-17T07:05:53.240Z,2.50
2022-10-17T07:08:44.520Z,2.97
2022-10-17T07:11:30.993Z,2.50
2022-10-17T07:14:17.472Z,3.10
2022-10-17T07:17:04.868Z,2.70
2022-10-17T07:19:51.344Z,3.50
2022-10-17T07:22:37.804Z,2.90
2022-10-17T07:25:26.121Z,3.23
2022-10-17T07:28:13.056Z,2.90
2022-10-17T07:31:04.796Z,3.37
2022-10-17T07:33:51.662Z,2.67
2022-10-17T07:36:38.348Z,2.77
2022-10-17T07:39:24.857Z,3.00
2022-10-17T07:42:14.485Z,2.57
2022-10-17T07:45:01.155Z,3.00
2022-10-17T07:47:47.843Z,2.90
2022-10-17T07:50:34.772Z,2.53
2022-10-17T07:53:21.359Z,3.40
2022-10-17T07:56:09.712Z,3.10
2022-10-17T07:58:59.848Z,2.60
2022-10-17T08:01:49.423Z,2.97
2022-10-17T08:04:36.403Z,2.60
2022-10-17T08:07:28.368Z,2.70
2022-10-17T08:10:17.225Z,2.93
2022-10-17T08:13:03.779Z,2.87
2022-10-17T08:15:51.935Z,3.10
2022-10-17T08:18:40.536Z,2.97
2022-10-17T08:21:26.998Z,2.70
2022-10-17T08:24:13.431Z,2.57
2022-10-17T08:27:00.693Z,2.77
2022-10-17T08:29:48.833Z,2.73
2022-10-17T08:32:36.675Z,2.73
2022-10-17T08:35:23.855Z,2.53
2022-10-17T08:38:12.339Z,2.60
2022-10-17T08:41:03.360Z,2.77
2022-10-17T08:44:03.319Z,2.90
2022-10-17T08:46:53.239Z,2.73
2022-10-17T08:49:47.889Z,3.03
2022-10-17T08:52:39.829Z,2.97
2022-10-17T08:55:33.337Z,2.67
2022-10-17T08:58:22.906Z,2.87
2022-10-17T09:01:24.147Z,2.90
2022-10-17T09:04:43.449Z,2.73
2022-10-17T09:07:38.165Z,2.97
2022-10-17T09:10:32.111Z,2.80
2022-10-17T09:13:30.029Z,2.90
2022-10-17T09:16:31.272Z,3.07
2022-10-17T09:19:22.321Z,2.83
2022-10-17T09:22:13.623Z,3.17
2022-10-17T09:25:06.869Z,2.90
2022-10-17T09:27:57.555Z,3.50
2022-10-17T09:30:46.378Z,3.13
2022-10-17T09:33:53.836Z,3.17
2022-10-17T09:36:42.545Z,2.90
2022-10-17T09:39:32.066Z,2.90
2022-10-17T09:42:22.507Z,2.70
2022-10-17T09:45:19.381Z,3.23
2022-10-17T09:48:12.654Z,3.10
2022-10-17T09:51:15.184Z,2.70
2022-10-17T09:54:19.123Z,2.93
2022-10-17T09:57:08.728Z,3.07
2022-10-17T10:00:02.596Z,2.87
2022-10-17T10:02:49.287Z,2.60
2022-10-17T10:05:35.814Z,2.60
2022-10-17T10:08:24.440Z,3.20
2022-10-17T10:11:13.827Z,2.90
2022-10-17T10:14:13.167Z,3.00
2022-10-17T10:17:02.427Z,3.00
2022-10-17T10:19:52.211Z,2.93
2022-10-17T10:22:38.612Z,3.20
2022-10-17T10:25:25.048Z,2.87
2022-10-17T10:28:12.629Z,3.40
2022-10-17T10:31:01.743Z,2.80
2022-10-17T10:33:52.134Z,3.20
2022-10-17T10:36:49.736Z,2.80
2022-10-17T10:39:45.911Z,2.97
2022-10-17T10:42:35.074Z,2.90
2022-10-17T10:48:36.132Z,2.80
2022-10-17T10:51:28.775Z,2.60
2022-10-17T10:54:21.253Z,3.73
2022-10-17T10:57:11.848Z,2.50
2022-10-17T11:00:05.779Z,2.60
2022-10-17T11:03:01.862Z,2.73
2022-10-17T11:05:54.228Z,2.53
2022-10-17T11:08:47.027Z,2.70
2022-10-17T11:11:39.295Z,3.20
2022-10-17T11:14:38.599Z,2.83
2022-10-17T11:17:33.373Z,2.50
2022-10-17T11:20:24.175Z,3.17
2022-10-17T11:23:20.710Z,2.87
2022-10-17T11:26:14.684Z,2.70
2022-10-17T11:29:06.612Z,2.57
2022-10-17T11:31:57.821Z,2.70
2022-10-17T11:34:48.703Z,2.90
2022-10-17T11:37:40.967Z,2.90
2022-10-17T11:40:33.719Z,3.20
2022-10-17T11:43:28.591Z,3.00
2022-10-17T11:46:19.333Z,2.97
2022-10-17T11:49:14.025Z,3.07
2022-10-17T11:52:26.995Z,3.67
2022-10-17T11:55:24.818Z,2.77
2022-10-17T11:58:30.589Z,3.47
2022-10-17T12:01:25.448Z,2.93
2022-10-17T12:04:27.448Z,3.60
2022-10-17T12:07:19.761Z,3.00
2022-10-17T12:10:19.159Z,3.07
2022-10-17T12:13:42.990Z,3.33
2022-10-17T12:16:52.035Z,3.10
2022-10-17T12:19:39.139Z,2.60
2022-10-17T12:22:27.046Z,3.20
2022-10-17T12:25:20.519Z,4.00
2022-10-17T12:28:15.074Z,3.20
2022-10-17T12:31:05.820Z,3.20
2022-10-17T12:33:56.351Z,3.70
2022-10-17T12:36:43.268Z,3.63
2022-10-17T12:39:51.761Z,3.73
2022-10-17T12:42:51.634Z,3.80
2022-10-17T12:45:49.788Z,3.87
2022-10-17T12:49:04.290Z,3.90
2022-10-17T12:52:29.727Z,4.83
2022-10-17T12:55:18.348Z,3.60
2022-10-17T12:58:08.184Z,3.97
2022-10-17T13:01:23.909Z,4.10
2022-10-17T13:04:06.639Z,4.20
2022-10-17T13:06:56.088Z,4.00
2022-10-17T13:09:45.352Z,4.50
2022-10-17T13:12:36.523Z,4.53
2022-10-17T13:15:24.334Z,4.67
2022-10-17T13:18:21.130Z,4.90
2022-10-17T13:21:16.688Z,5.00
2022-10-17T13:24:20.228Z,4.77
2022-10-17T13:27:08.575Z,4.80
2022-10-17T13:29:57.321Z,4.83
2022-10-17T13:32:45.138Z,5.40
2022-10-17T13:35:58.907Z,5.23
2022-10-17T13:38:44.167Z,4.67
2022-10-17T13:41:36.590Z,4.60
2022-10-17T13:44:27.119Z,4.50
2022-10-17T13:47:23.506Z,5.40
2022-10-17T13:50:42.953Z,4.57
2022-10-17T13:53:33.093Z,4.80
2022-10-17T13:56:28.503Z,4.50
2022-10-17T13:59:25.192Z,4.60
2022-10-17T14:02:17.022Z,4.60
2022-10-17T14:05:18.783Z,4.20
2022-10-17T14:08:11.772Z,4.77
2022-10-17T14:11:01.023Z,4.40
2022-10-17T14:13:53.355Z,4.37
2022-10-17T14:16:42.855Z,4.70
2022-10-17T14:19:32.899Z,4.53
2022-10-17T14:22:26.608Z,4.53
2022-10-17T14:25:29.769Z,4.93
2022-10-17T14:28:18.485Z,4.63
2022-10-17T14:31:29.995Z,4.30
2022-10-17T14:34:24.856Z,4.97
2022-10-17T14:37:13.743Z,4.30
2022-10-17T14:40:01.385Z,4.40
2022-10-17T14:42:49.337Z,4.90
2022-10-17T14:45:38.067Z,4.60
2022-10-17T14:48:27.345Z,4.97
2022-10-17T14:51:16.527Z,4.40
2022-10-17T14:54:19.475Z,4.33
2022-10-17T14:57:15.940Z,5.03
2022-10-17T15:00:02.691Z,5.03
2022-10-17T15:02:52.091Z,5.23
2022-10-17T15:05:40.687Z,5.50
2022-10-17T15:08:27.268Z,4.90
2022-10-17T15:11:13.901Z,4.90
2022-10-17T15:14:00.757Z,5.07
2022-10-17T15:16:47.259Z,4.80
2022-10-17T15:19:33.708Z,5.43
2022-10-17T15:22:21.972Z,4.93
2022-10-17T15:25:09.233Z,4.83
2022-10-17T15:27:56.529Z,5.53
2022-10-17T15:30:43.363Z,5.30
2022-10-17T15:33:30.010Z,5.23
2022-10-17T15:36:21.764Z,5.00
2022-10-17T15:39:11.195Z,5.30
2022-10-17T15:41:57.828Z,5.60
2022-10-17T15:44:44.888Z,5.60
2022-10-17T15:47:33.866Z,5.60
2022-10-17T15:50:21.786Z,5.10
2022-10-17T15:53:12.368Z,5.40
2022-10-17T15:56:01.443Z,5.57
2022-10-17T15:58:48.118Z,5.73
2022-10-17T16:01:35.978Z,5.60
2022-10-17T16:04:24.131Z,6.17
2022-10-17T16:07:11.071Z,6.43
2022-10-17T16:09:57.886Z,6.53
2022-10-17T16:12:46.978Z,6.00
2022-10-17T16:15:34.083Z,6.37
2022-10-17T16:18:21.216Z,6.43
2022-10-17T16:21:07.720Z,6.33
2022-10-17T16:23:54.804Z,5.90
2022-10-17T16:26:42.066Z,6.60
2022-10-17T16:29:29.960Z,6.33
2022-10-17T16:32:16.669Z,5.30
2022-10-17T16:35:03.066Z,6.60
2022-10-17T16:37:50.051Z,7.07
2022-10-17T16:40:40.291Z,6.70
2022-10-17T16:43:26.952Z,6.97
2022-10-17T16:46:15.141Z,6.70
2022-10-17T16:49:01.928Z,6.73
2022-10-17T16:51:48.346Z,6.80
2022-10-17T16:54:35.263Z,6.20
2022-10-17T16:57:21.832Z,6.00
2022-10-17T17:00:11.867Z,6.37
2022-10-17T17:02:59.898Z,5.87
2022-10-17T17:05:51.388Z,5.60
2022-10-17T17:08:38.216Z,7.50
2022-10-17T17:11:26.962Z,8.70
2022-10-17T17:14:13.745Z,5.90
2022-10-17T17:17:00.009Z,5.37
2022-10-17T17:19:48.095Z,5.50
2022-10-17T17:22:34.862Z,4.50
2022-10-17T17:25:21.312Z,5.33
2022-10-17T17:28:08.293Z,4.67
2022-10-17T17:30:55.723Z,4.80
2022-10-17T17:33:43.424Z,4.40
2022-10-17T17:36:33.892Z,4.73
2022-10-17T17:39:20.506Z,5.00
2022-10-17T17:42:06.850Z,4.80
2022-10-17T17:44:53.442Z,3.97
2022-10-17T17:47:40.098Z,4.20
2022-10-17T17:50:26.537Z,4.13
2022-10-17T17:53:16.412Z,4.10
2022-10-17T17:56:03.791Z,3.90
2022-10-17T17:58:55.783Z,3.73
2022-10-17T18:01:42.946Z,4.30
2022-10-17T18:04:29.709Z,4.00
2022-10-17T18:07:16.167Z,4.20
2022-10-17T18:10:04.847Z,4.47
2022-10-17T18:12:52.185Z,3.90
2022-10-17T18:15:41.610Z,4.77
2022-10-17T18:18:29.811Z,4.70
2022-10-17T18:21:16.962Z,4.17
2022-10-17T18:24:04.823Z,4.80
2022-10-17T18:26:56.064Z,4.93
2022-10-17T18:29:42.694Z,4.63
2022-10-17T18:32:32.020Z,4.60
2022-10-17T18:35:19.344Z,4.67
2022-10-17T18:38:05.961Z,4.93
2022-10-17T18:41:02.567Z,5.30
2022-10-17T18:43:51.531Z,5.10
2022-10-17T18:46:40.917Z,5.00
2022-10-17T18:49:27.884Z,4.27
2022-10-17T18:52:14.648Z,5.43
2022-10-17T18:55:01.247Z,4.40
2022-10-17T18:57:49.065Z,5.07
2022-10-17T19:00:37.789Z,4.70
2022-10-17T19:03:24.627Z,4.53
2022-10-17T19:06:12.421Z,4.63
2022-10-17T19:08:59.899Z,4.97
2022-10-17T19:11:46.749Z,4.93
2022-10-17T19:14:33.390Z,5.30
2022-10-17T19:17:21.161Z,4.80
2022-10-17T19:20:09.249Z,5.50
2022-10-17T19:22:56.582Z,4.77
2022-10-17T19:25:43.242Z,5.13
2022-10-17T19:28:29.823Z,4.97
2022-10-17T19:31:18.070Z,5.00
2022-10-17T19:34:06.637Z,4.77
2022-10-17T19:36:53.576Z,4.90
2022-10-17T19:39:40.274Z,5.80
2022-10-17T19:42:26.748Z,5.70
2022-10-17T19:45:13.177Z,5.77
2022-10-17T19:48:00.179Z,6.10
2022-10-17T19:50:48.086Z,5.97
2022-10-17T19:53:35.247Z,6.10
2022-10-17T19:56:23.280Z,7.00
2022-10-17T19:59:12.152Z,6.37
2022-10-17T20:01:58.840Z,6.13
2022-10-17T20:04:54.493Z,6.83
2022-10-17T20:07:53.239Z,6.40
2022-10-17T20:10:40.121Z,6.70
2022-10-17T20:13:26.700Z,6.00
2022-10-17T20:16:15.576Z,6.43
2022-10-17T20:19:06.076Z,6.43
2022-10-17T20:21:52.836Z,7.40
2022-10-17T20:24:40.779Z,6.33
2022-10-17T20:27:27.874Z,6.63
2022-10-17T20:30:14.653Z,6.60
2022-10-17T20:33:01.705Z,5.77
2022-10-17T20:35:48.656Z,6.60
2022-10-17T20:38:35.969Z,6.37
2022-10-17T20:41:24.499Z,6.57
2022-10-17T20:44:12.194Z,6.60
2022-10-17T20:47:02.122Z,6.67
2022-10-17T20:49:49.748Z,6.70
2022-10-17T20:52:38.006Z,6.97
2022-10-17T20:55:24.723Z,6.70
2022-10-17T20:58:13.198Z,7.00
2022-10-17T21:00:59.889Z,6.77
2022-10-17T21:03:46.893Z,6.90
2022-10-17T21:06:33.531Z,7.37
2022-10-17T21:09:20.251Z,6.93
2022-10-17T21:12:06.875Z,6.93
2022-10-17T21:14:55.097Z,6.83
2022-10-17T21:17:41.670Z,7.43
2022-10-17T21:20:28.449Z,6.43
2022-10-17T21:23:14.960Z,7.43
2022-10-17T21:26:01.562Z,7.67
2022-10-17T21:28:49.610Z,7.10
2022-10-17T21:31:38.902Z,6.63
2022-10-17T21:34:25.827Z,6.53
2022-10-17T21:37:12.450Z,6.70
2022-10-17T21:39:58.887Z,7.50
2022-10-17T21:42:45.492Z,7.20
2022-10-17T21:45:32.638Z,6.37
2022-10-17T21:48:20.707Z,7.07
2022-10-17T21:51:09.318Z,6.67
2022-10-17T21:53:57.397Z,6.90
2022-10-17T21:56:44.304Z,7.70
2022-10-17T21:59:34.796Z,7.37
2022-10-17T22:02:21.283Z,6.83
2022-10-17T22:05:09.846Z,6.87
2022-10-17T22:07:56.408Z,7.80
2022-10-17T22:10:42.865Z,7.47
2022-10-17T22:13:29.333Z,7.63
2022-10-17T22:16:17.121Z,7.50
2022-10-17T22:19:06.655Z,7.03
2022-10-17T22:21:55.268Z,7.37
2022-10-17T22:24:42.064Z,7.87
2022-10-17T22:27:28.818Z,6.43
2022-10-17T22:30:15.531Z,7.23
2022-10-17T22:33:01.931Z,7.80
2022-10-17T22:35:49.085Z,9.10
2022-10-17T22:38:37.846Z,8.27
2022-10-17T22:41:24.559Z,7.80
2022-10-17T22:44:11.064Z,8.03
2022-10-17T22:46:57.817Z,7.27
2022-10-17T22:49:44.287Z,7.90
2022-10-17T22:52:30.895Z,8.30
2022-10-17T22:55:19.200Z,7.70
2022-10-17T22:58:05.964Z,8.03
2022-10-17T23:00:53.584Z,7.70
2022-10-17T23:03:40.182Z,8.90
2022-10-17T23:06:26.736Z,7.77
2022-10-17T23:09:14.175Z,8.57
2022-10-17T23:12:02.046Z,8.03
2022-10-17T23:14:48.663Z,8.67
2022-10-17T23:17:35.337Z,8.17
2022-10-17T23:20:21.777Z,8.73
2022-10-17T23:23:08.195Z,8.63
2022-10-17T23:25:54.834Z,8.80
2022-10-17T23:28:43.410Z,8.73
2022-10-17T23:31:29.960Z,9.33
2022-10-17T23:34:16.619Z,8.73
2022-10-17T23:37:03.532Z,8.70
2022-10-17T23:39:50.035Z,8.67
2022-10-17T23:42:36.564Z,8.03
2022-10-17T23:45:24.471Z,7.83
2022-10-17T23:48:11.179Z,8.17
2022-10-17T23:50:58.034Z,9.17
2022-10-17T23:53:44.741Z,8.40
2022-10-17T23:56:31.433Z,8.40
2022-10-17T23:59:18.267Z,7.90
